QTR8500 GMMN-LPPT
Flight info
| Callsign | QTR8500 |
|---|---|
| Flight time | 1h 3m |
| Altitude | 40000 |
| Route | LAKAM UR722 AMSEL DCT VATZI |
| Aircraft | B77L/H-SDE1E2E3FGHIJ2J3J4J5M1RWXY/LB1D1 |
Departure
| Time | 2026-05-07 19:41 |
|---|---|
| Airport | Mohammed V International Airport (GMMN) |
Arrival
| Time | 2026-05-07 20:44 |
|---|---|
| Airport | Lisbon Humberto Delgado Airport (LPPT) |
| Time | Latitude | Longitude | Altitude | Speed | Heading |
|---|---|---|---|---|---|
| 2026-05-07 19:15 | 33.36841 | -7.58251 | 632 ft | 0 kts | 162° |
| 2026-05-07 19:34 | 33.36833 | -7.58247 | 659 ft | 3 kts | 159° |
| 2026-05-07 19:34 | 33.36794 | -7.58200 | 660 ft | 23 kts | 124° |
| 2026-05-07 19:34 | 33.36589 | -7.58078 | 661 ft | 33 kts | 175° |
| 2026-05-07 19:35 | 33.36376 | -7.58122 | 662 ft | 29 kts | 165° |
| 2026-05-07 19:35 | 33.36263 | -7.58140 | 663 ft | 13 kts | 241° |
| 2026-05-07 19:35 | 33.36173 | -7.58228 | 663 ft | 27 kts | 171° |
| 2026-05-07 19:35 | 33.35956 | -7.58155 | 664 ft | 35 kts | 165° |
| 2026-05-07 19:36 | 33.35727 | -7.58078 | 666 ft | 34 kts | 164° |
| 2026-05-07 19:36 | 33.35502 | -7.58001 | 667 ft | 33 kts | 164° |
| 2026-05-07 19:36 | 33.35322 | -7.57948 | 668 ft | 6 kts | 187° |
| 2026-05-07 19:36 | 33.35286 | -7.57973 | 669 ft | 7 kts | 223° |
| 2026-05-07 19:37 | 33.35258 | -7.58022 | 668 ft | 8 kts | 231° |
| 2026-05-07 19:37 | 33.35255 | -7.58026 | 669 ft | 0 kts | 233° |
| 2026-05-07 19:37 | 33.35249 | -7.58039 | 669 ft | 0 kts | 241° |
| 2026-05-07 19:38 | 33.35247 | -7.58043 | 669 ft | 2 kts | 243° |
| 2026-05-07 19:39 | 33.35229 | -7.58102 | 669 ft | 19 kts | 252° |
| 2026-05-07 19:39 | 33.35236 | -7.58260 | 670 ft | 20 kts | 316° |
| 2026-05-07 19:39 | 33.35268 | -7.58279 | 670 ft | 1 kts | 340° |
| 2026-05-07 19:39 | 33.35277 | -7.58284 | 670 ft | 0 kts | 340° |
| 2026-05-07 19:40 | 33.35288 | -7.58288 | 670 ft | 12 kts | 341° |
| 2026-05-07 19:40 | 33.35652 | -7.58413 | 665 ft | 117 kts | 344° |
| 2026-05-07 19:41 | 33.36821 | -7.58824 | 1058 ft | 204 kts | 346° |
| 2026-05-07 19:41 | 33.38241 | -7.59278 | 2478 ft | 215 kts | 347° |
| 2026-05-07 19:41 | 33.39712 | -7.59887 | 3295 ft | 235 kts | 338° |
| 2026-05-07 19:41 | 33.41213 | -7.60804 | 4030 ft | 252 kts | 329° |
| 2026-05-07 19:42 | 33.42663 | -7.61989 | 4627 ft | 255 kts | 321° |
| 2026-05-07 19:42 | 33.44012 | -7.63423 | 5009 ft | 263 kts | 313° |
| 2026-05-07 19:42 | 33.45205 | -7.65073 | 4994 ft | 259 kts | 305° |
| 2026-05-07 19:42 | 33.46211 | -7.66860 | 5007 ft | 261 kts | 302° |
| 2026-05-07 19:43 | 33.47187 | -7.68677 | 4998 ft | 259 kts | 301° |
| 2026-05-07 19:43 | 33.48161 | -7.70500 | 5004 ft | 259 kts | 301° |
| 2026-05-07 19:43 | 33.49133 | -7.72314 | 5001 ft | 259 kts | 301° |
| 2026-05-07 19:43 | 33.50104 | -7.74125 | 4994 ft | 258 kts | 301° |
| 2026-05-07 19:44 | 33.51077 | -7.75939 | 5258 ft | 261 kts | 301° |
| 2026-05-07 19:44 | 33.52076 | -7.77794 | 6244 ft | 269 kts | 300° |
| 2026-05-07 19:44 | 33.53103 | -7.79705 | 7215 ft | 277 kts | 300° |
| 2026-05-07 19:44 | 33.54151 | -7.81653 | 8338 ft | 278 kts | 298° |
| 2026-05-07 19:45 | 33.55205 | -7.83614 | 9466 ft | 281 kts | 298° |
| 2026-05-07 19:45 | 33.56502 | -7.85431 | 10318 ft | 297 kts | 320° |
| 2026-05-07 19:45 | 33.58520 | -7.86436 | 10683 ft | 338 kts | 347° |
| 2026-05-07 19:45 | 33.60995 | -7.86393 | 10937 ft | 372 kts | 5° |
| 2026-05-07 19:46 | 33.63601 | -7.85895 | 11679 ft | 385 kts | 7° |
| 2026-05-07 19:46 | 33.66262 | -7.85298 | 12656 ft | 392 kts | 8° |
| 2026-05-07 19:46 | 33.68967 | -7.84668 | 13699 ft | 398 kts | 8° |
| 2026-05-07 19:46 | 33.71696 | -7.84036 | 14540 ft | 402 kts | 8° |
| 2026-05-07 19:47 | 33.74461 | -7.83408 | 14979 ft | 406 kts | 8° |
| 2026-05-07 19:47 | 33.77249 | -7.82788 | 14959 ft | 407 kts | 7° |
| 2026-05-07 19:47 | 33.80038 | -7.82178 | 14959 ft | 408 kts | 7° |
| 2026-05-07 19:47 | 33.82827 | -7.81572 | 14962 ft | 408 kts | 7° |
| 2026-05-07 19:48 | 33.85620 | -7.80969 | 14962 ft | 408 kts | 7° |
| 2026-05-07 19:48 | 33.88429 | -7.80363 | 15537 ft | 413 kts | 7° |
| 2026-05-07 19:48 | 33.91258 | -7.79753 | 16538 ft | 415 kts | 7° |
| 2026-05-07 19:48 | 33.94120 | -7.79135 | 17559 ft | 418 kts | 7° |
| 2026-05-07 19:49 | 33.97001 | -7.78512 | 18459 ft | 424 kts | 6° |
| 2026-05-07 19:49 | 33.99930 | -7.77879 | 19199 ft | 431 kts | 6° |
| 2026-05-07 19:49 | 34.02937 | -7.77228 | 19964 ft | 437 kts | 6° |
| 2026-05-07 19:49 | 34.05956 | -7.76574 | 20750 ft | 443 kts | 6° |
| 2026-05-07 19:50 | 34.09017 | -7.75908 | 21538 ft | 449 kts | 6° |
| 2026-05-07 19:50 | 34.12107 | -7.75237 | 22312 ft | 455 kts | 6° |
| 2026-05-07 19:50 | 34.15289 | -7.74546 | 23078 ft | 461 kts | 5° |
| 2026-05-07 19:50 | 34.18482 | -7.74035 | 23774 ft | 464 kts | 359° |
| 2026-05-07 19:51 | 34.21705 | -7.73908 | 24444 ft | 463 kts | 352° |
| 2026-05-07 19:51 | 34.24929 | -7.74112 | 25182 ft | 464 kts | 350° |
| 2026-05-07 19:51 | 34.28152 | -7.74370 | 25937 ft | 467 kts | 350° |
| 2026-05-07 19:51 | 34.31409 | -7.74639 | 26657 ft | 471 kts | 350° |
| 2026-05-07 19:52 | 34.34692 | -7.74902 | 27335 ft | 476 kts | 350° |
| 2026-05-07 19:52 | 34.38013 | -7.75154 | 28033 ft | 480 kts | 350° |
| 2026-05-07 19:52 | 34.41362 | -7.75397 | 28737 ft | 484 kts | 350° |
| 2026-05-07 19:52 | 34.44745 | -7.75636 | 29445 ft | 489 kts | 350° |
| 2026-05-07 19:53 | 34.48155 | -7.75874 | 30113 ft | 493 kts | 350° |
| 2026-05-07 19:53 | 34.51594 | -7.76113 | 30683 ft | 497 kts | 350° |
| 2026-05-07 19:53 | 34.55057 | -7.76355 | 31158 ft | 502 kts | 350° |
| 2026-05-07 19:53 | 34.58558 | -7.76601 | 31642 ft | 505 kts | 350° |
| 2026-05-07 19:54 | 34.62073 | -7.76847 | 32253 ft | 505 kts | 350° |
| 2026-05-07 19:54 | 34.65576 | -7.77090 | 32986 ft | 503 kts | 350° |
| 2026-05-07 19:54 | 34.69064 | -7.77335 | 33680 ft | 502 kts | 350° |
| 2026-05-07 19:54 | 34.72557 | -7.77582 | 34269 ft | 501 kts | 350° |
| 2026-05-07 19:55 | 34.76024 | -7.77833 | 34885 ft | 498 kts | 349° |
| 2026-05-07 19:55 | 34.79464 | -7.78105 | 35534 ft | 494 kts | 349° |
| 2026-05-07 19:55 | 34.82889 | -7.78391 | 36170 ft | 491 kts | 348° |
| 2026-05-07 19:55 | 34.86290 | -7.78680 | 36755 ft | 489 kts | 348° |
| 2026-05-07 19:56 | 34.89678 | -7.78969 | 37315 ft | 487 kts | 348° |
| 2026-05-07 19:56 | 34.93103 | -7.79258 | 37865 ft | 486 kts | 348° |
| 2026-05-07 19:56 | 34.96479 | -7.79544 | 37981 ft | 488 kts | 348° |
| 2026-05-07 19:56 | 34.99866 | -7.79829 | 37964 ft | 487 kts | 348° |
| 2026-05-07 19:57 | 35.06610 | -7.80389 | 37959 ft | 485 kts | 348° |
| 2026-05-07 19:57 | 35.13352 | -7.80951 | 37960 ft | 485 kts | 348° |
| 2026-05-07 19:58 | 35.20092 | -7.81514 | 37972 ft | 486 kts | 348° |
| 2026-05-07 19:58 | 35.26858 | -7.82083 | 38063 ft | 492 kts | 348° |
| 2026-05-07 19:59 | 35.30287 | -7.82372 | 38414 ft | 494 kts | 348° |
| 2026-05-07 19:59 | 35.33705 | -7.82655 | 38910 ft | 490 kts | 348° |
| 2026-05-07 19:59 | 35.37102 | -7.82937 | 39331 ft | 489 kts | 348° |
| 2026-05-07 19:59 | 35.40491 | -7.83221 | 39643 ft | 489 kts | 348° |
| 2026-05-07 20:00 | 35.43888 | -7.83514 | 39886 ft | 491 kts | 348° |
| 2026-05-07 20:00 | 35.47321 | -7.83823 | 39931 ft | 496 kts | 348° |
| 2026-05-07 20:00 | 35.54203 | -7.84448 | 39947 ft | 493 kts | 348° |
| 2026-05-07 20:01 | 35.60996 | -7.85058 | 39949 ft | 488 kts | 348° |
| 2026-05-07 20:01 | 35.67760 | -7.85671 | 39959 ft | 486 kts | 348° |
| 2026-05-07 20:02 | 35.74510 | -7.86284 | 39958 ft | 487 kts | 348° |
| 2026-05-07 20:02 | 35.81268 | -7.86898 | 39957 ft | 488 kts | 348° |
| 2026-05-07 20:03 | 35.88056 | -7.87514 | 39956 ft | 489 kts | 348° |
| 2026-05-07 20:03 | 35.94794 | -7.88443 | 39963 ft | 483 kts | 340° |
| 2026-05-07 20:04 | 36.01154 | -7.90827 | 39951 ft | 473 kts | 329° |
| 2026-05-07 20:04 | 36.07097 | -7.94270 | 39952 ft | 472 kts | 326° |
| 2026-05-07 20:05 | 36.13019 | -7.97843 | 39956 ft | 474 kts | 326° |
| 2026-05-07 20:05 | 36.18961 | -8.01398 | 39952 ft | 475 kts | 327° |
| 2026-05-07 20:06 | 36.23955 | -8.04359 | 39947 ft | 475 kts | 327° |
| 2026-05-07 20:06 | 36.29921 | -8.07887 | 39945 ft | 475 kts | 327° |
| 2026-05-07 20:07 | 36.35876 | -8.11413 | 39947 ft | 474 kts | 327° |
| 2026-05-07 20:07 | 36.41807 | -8.14943 | 40018 ft | 471 kts | 333° |
| 2026-05-07 20:08 | 36.47744 | -8.18462 | 39957 ft | 475 kts | 327° |
| 2026-05-07 20:08 | 36.53720 | -8.22030 | 39950 ft | 477 kts | 327° |
| 2026-05-07 20:09 | 36.59713 | -8.25610 | 39947 ft | 478 kts | 327° |
| 2026-05-07 20:10 | 36.68682 | -8.30971 | 39836 ft | 470 kts | 327° |
| 2026-05-07 20:10 | 36.71622 | -8.32727 | 39516 ft | 471 kts | 326° |
| 2026-05-07 20:10 | 36.74592 | -8.34514 | 39464 ft | 472 kts | 326° |
| 2026-05-07 20:10 | 36.77573 | -8.36301 | 38986 ft | 468 kts | 326° |
| 2026-05-07 20:11 | 36.80474 | -8.38045 | 38195 ft | 470 kts | 326° |
| 2026-05-07 20:11 | 36.83459 | -8.39844 | 37352 ft | 472 kts | 326° |
| 2026-05-07 20:11 | 36.86375 | -8.41601 | 36740 ft | 469 kts | 326° |
| 2026-05-07 20:11 | 36.89340 | -8.43384 | 36233 ft | 464 kts | 326° |
| 2026-05-07 20:12 | 36.92230 | -8.45122 | 35748 ft | 460 kts | 326° |
| 2026-05-07 20:12 | 36.95101 | -8.46852 | 35228 ft | 456 kts | 326° |
| 2026-05-07 20:12 | 36.97953 | -8.48574 | 34702 ft | 454 kts | 326° |
| 2026-05-07 20:12 | 37.00794 | -8.50292 | 34170 ft | 452 kts | 326° |
| 2026-05-07 20:13 | 37.03620 | -8.52004 | 33544 ft | 451 kts | 326° |
| 2026-05-07 20:13 | 37.06442 | -8.53716 | 32896 ft | 451 kts | 327° |
| 2026-05-07 20:13 | 37.09261 | -8.55426 | 32272 ft | 450 kts | 327° |
| 2026-05-07 20:13 | 37.12071 | -8.57131 | 31642 ft | 449 kts | 327° |
| 2026-05-07 20:14 | 37.14918 | -8.58860 | 31012 ft | 447 kts | 328° |
| 2026-05-07 20:14 | 37.17712 | -8.60557 | 30428 ft | 446 kts | 328° |
| 2026-05-07 20:14 | 37.20501 | -8.62253 | 29809 ft | 445 kts | 328° |
| 2026-05-07 20:14 | 37.23285 | -8.63947 | 29119 ft | 443 kts | 328° |
| 2026-05-07 20:15 | 37.26051 | -8.65630 | 28452 ft | 441 kts | 328° |
| 2026-05-07 20:15 | 37.28806 | -8.67309 | 27815 ft | 439 kts | 329° |
| 2026-05-07 20:15 | 37.31553 | -8.68983 | 27176 ft | 437 kts | 329° |
| 2026-05-07 20:15 | 37.34283 | -8.70651 | 26560 ft | 436 kts | 329° |
| 2026-05-07 20:16 | 37.37006 | -8.72314 | 25947 ft | 434 kts | 329° |
| 2026-05-07 20:16 | 37.39716 | -8.73971 | 25343 ft | 432 kts | 329° |
| 2026-05-07 20:16 | 37.42448 | -8.75644 | 24757 ft | 430 kts | 329° |
| 2026-05-07 20:16 | 37.45137 | -8.77292 | 24185 ft | 429 kts | 329° |
| 2026-05-07 20:17 | 37.47810 | -8.78930 | 23623 ft | 427 kts | 329° |
| 2026-05-07 20:17 | 37.50471 | -8.80563 | 22972 ft | 425 kts | 329° |
| 2026-05-07 20:17 | 37.53123 | -8.82192 | 22309 ft | 423 kts | 329° |
| 2026-05-07 20:17 | 37.55770 | -8.83818 | 21675 ft | 422 kts | 329° |
| 2026-05-07 20:18 | 37.58404 | -8.85437 | 21053 ft | 420 kts | 329° |
| 2026-05-07 20:18 | 37.61053 | -8.86977 | 20433 ft | 421 kts | 333° |
| 2026-05-07 20:18 | 37.63817 | -8.88216 | 19832 ft | 422 kts | 338° |
| 2026-05-07 20:18 | 37.66622 | -8.89300 | 19244 ft | 421 kts | 339° |
| 2026-05-07 20:19 | 37.69428 | -8.90348 | 18679 ft | 420 kts | 339° |
| 2026-05-07 20:19 | 37.72216 | -8.91408 | 18076 ft | 418 kts | 339° |
| 2026-05-07 20:19 | 37.74988 | -8.92493 | 17439 ft | 416 kts | 339° |
| 2026-05-07 20:19 | 37.77708 | -8.93581 | 17252 ft | 403 kts | 338° |
| 2026-05-07 20:20 | 37.80367 | -8.94655 | 17147 ft | 389 kts | 338° |
| 2026-05-07 20:20 | 37.82916 | -8.95694 | 16797 ft | 383 kts | 338° |
| 2026-05-07 20:20 | 37.85436 | -8.96728 | 16353 ft | 378 kts | 338° |
| 2026-05-07 20:20 | 37.87924 | -8.97748 | 15931 ft | 373 kts | 339° |
| 2026-05-07 20:21 | 37.90379 | -8.98755 | 15518 ft | 369 kts | 339° |
| 2026-05-07 20:21 | 37.92803 | -8.99749 | 15104 ft | 364 kts | 339° |
| 2026-05-07 20:21 | 37.95199 | -9.00729 | 14678 ft | 358 kts | 341° |
| 2026-05-07 20:21 | 37.97632 | -9.01205 | 14270 ft | 354 kts | 2° |
| 2026-05-07 20:22 | 38.00005 | -9.00535 | 13909 ft | 348 kts | 26° |
| 2026-05-07 20:22 | 38.01955 | -8.98838 | 13608 ft | 336 kts | 48° |
| 2026-05-07 20:22 | 38.03423 | -8.96603 | 13369 ft | 324 kts | 57° |
| 2026-05-07 20:22 | 38.04736 | -8.94287 | 12972 ft | 324 kts | 58° |
| 2026-05-07 20:23 | 38.06023 | -8.91937 | 12532 ft | 325 kts | 58° |
| 2026-05-07 20:23 | 38.07304 | -8.89577 | 12104 ft | 325 kts | 58° |
| 2026-05-07 20:23 | 38.08575 | -8.87221 | 11938 ft | 320 kts | 59° |
| 2026-05-07 20:23 | 38.09808 | -8.84934 | 11681 ft | 312 kts | 59° |
| 2026-05-07 20:24 | 38.11036 | -8.82648 | 11457 ft | 313 kts | 59° |
| 2026-05-07 20:24 | 38.12251 | -8.80380 | 11365 ft | 309 kts | 59° |
| 2026-05-07 20:24 | 38.13455 | -8.78129 | 11233 ft | 308 kts | 59° |
| 2026-05-07 20:24 | 38.14654 | -8.75883 | 11089 ft | 307 kts | 59° |
| 2026-05-07 20:25 | 38.15847 | -8.73647 | 11021 ft | 305 kts | 59° |
| 2026-05-07 20:25 | 38.17038 | -8.71413 | 10970 ft | 306 kts | 59° |
| 2026-05-07 20:25 | 38.18247 | -8.69189 | 10952 ft | 304 kts | 53° |
| 2026-05-07 20:25 | 38.19938 | -8.67566 | 10947 ft | 313 kts | 21° |
| 2026-05-07 20:26 | 38.22090 | -8.67231 | 10957 ft | 316 kts | 350° |
| 2026-05-07 20:26 | 38.24097 | -8.68284 | 10960 ft | 314 kts | 319° |
| 2026-05-07 20:26 | 38.25490 | -8.70399 | 10952 ft | 304 kts | 297° |
| 2026-05-07 20:26 | 38.26601 | -8.72679 | 10952 ft | 304 kts | 299° |
| 2026-05-07 20:27 | 38.27766 | -8.74934 | 10950 ft | 304 kts | 300° |
| 2026-05-07 20:27 | 38.28934 | -8.77180 | 10947 ft | 304 kts | 300° |
| 2026-05-07 20:27 | 38.30095 | -8.79428 | 10948 ft | 304 kts | 300° |
| 2026-05-07 20:27 | 38.31253 | -8.81681 | 10950 ft | 304 kts | 299° |
| 2026-05-07 20:28 | 38.32405 | -8.83930 | 10949 ft | 303 kts | 299° |
| 2026-05-07 20:28 | 38.33555 | -8.86180 | 10951 ft | 303 kts | 299° |
| 2026-05-07 20:28 | 38.34700 | -8.88424 | 10947 ft | 303 kts | 299° |
| 2026-05-07 20:28 | 38.35848 | -8.90673 | 10946 ft | 303 kts | 299° |
| 2026-05-07 20:29 | 38.36997 | -8.92926 | 10946 ft | 303 kts | 299° |
| 2026-05-07 20:29 | 38.38143 | -8.95176 | 10883 ft | 305 kts | 299° |
| 2026-05-07 20:29 | 38.39194 | -8.97517 | 10430 ft | 303 kts | 285° |
| 2026-05-07 20:29 | 38.39447 | -9.00139 | 9904 ft | 298 kts | 259° |
| 2026-05-07 20:30 | 38.38850 | -9.02621 | 9347 ft | 292 kts | 239° |
| 2026-05-07 20:30 | 38.37769 | -9.04791 | 8794 ft | 289 kts | 233° |
| 2026-05-07 20:30 | 38.36646 | -9.06897 | 8213 ft | 281 kts | 234° |
| 2026-05-07 20:30 | 38.35581 | -9.08913 | 7644 ft | 269 kts | 234° |
| 2026-05-07 20:31 | 38.34640 | -9.10897 | 7166 ft | 256 kts | 246° |
| 2026-05-07 20:31 | 38.34333 | -9.13051 | 6956 ft | 242 kts | 273° |
| 2026-05-07 20:31 | 38.34535 | -9.15163 | 6953 ft | 242 kts | 264° |
| 2026-05-07 20:31 | 38.34067 | -9.17161 | 6960 ft | 235 kts | 239° |
| 2026-05-07 20:32 | 38.33226 | -9.18935 | 6953 ft | 235 kts | 237° |
| 2026-05-07 20:32 | 38.32377 | -9.20723 | 6959 ft | 236 kts | 237° |
| 2026-05-07 20:32 | 38.31522 | -9.22525 | 6947 ft | 233 kts | 237° |
| 2026-05-07 20:32 | 38.30686 | -9.24287 | 6947 ft | 232 kts | 237° |
| 2026-05-07 20:33 | 38.29854 | -9.26040 | 6942 ft | 230 kts | 237° |
| 2026-05-07 20:33 | 38.29028 | -9.27779 | 6947 ft | 229 kts | 237° |
| 2026-05-07 20:33 | 38.28207 | -9.29487 | 6937 ft | 225 kts | 244° |
| 2026-05-07 20:33 | 38.27814 | -9.31450 | 6962 ft | 231 kts | 253° |
| 2026-05-07 20:34 | 38.27350 | -9.33413 | 6951 ft | 235 kts | 260° |
| 2026-05-07 20:34 | 38.27534 | -9.35503 | 6960 ft | 245 kts | 290° |
| 2026-05-07 20:34 | 38.28524 | -9.37266 | 6958 ft | 247 kts | 312° |
| 2026-05-07 20:34 | 38.29351 | -9.38254 | 6880 ft | 245 kts | 318° |
| 2026-05-07 20:35 | 38.30910 | -9.39159 | 6550 ft | 248 kts | 354° |
| 2026-05-07 20:35 | 38.32565 | -9.38696 | 6165 ft | 248 kts | 31° |
| 2026-05-07 20:35 | 38.34002 | -9.37508 | 5757 ft | 243 kts | 28° |
| 2026-05-07 20:35 | 38.35461 | -9.36523 | 5668 ft | 236 kts | 25° |
| 2026-05-07 20:36 | 38.36979 | -9.35598 | 5567 ft | 247 kts | 23° |
| 2026-05-07 20:36 | 38.38557 | -9.34683 | 5456 ft | 251 kts | 22° |
| 2026-05-07 20:36 | 38.40159 | -9.33784 | 5330 ft | 251 kts | 21° |
| 2026-05-07 20:36 | 38.41751 | -9.32911 | 5194 ft | 246 kts | 21° |
| 2026-05-07 20:37 | 38.43297 | -9.32077 | 5073 ft | 235 kts | 21° |
| 2026-05-07 20:37 | 38.44759 | -9.31296 | 4918 ft | 221 kts | 20° |
| 2026-05-07 20:37 | 38.46143 | -9.30563 | 4729 ft | 209 kts | 20° |
| 2026-05-07 20:37 | 38.47447 | -9.29873 | 4552 ft | 198 kts | 20° |
| 2026-05-07 20:38 | 38.48712 | -9.29207 | 4279 ft | 194 kts | 19° |
| 2026-05-07 20:38 | 38.49950 | -9.28557 | 4080 ft | 190 kts | 19° |
| 2026-05-07 20:38 | 38.51180 | -9.27913 | 4048 ft | 192 kts | 19° |
| 2026-05-07 20:38 | 38.52433 | -9.27257 | 4019 ft | 196 kts | 19° |
| 2026-05-07 20:39 | 38.53684 | -9.26600 | 4005 ft | 192 kts | 19° |
| 2026-05-07 20:39 | 38.54919 | -9.25952 | 4006 ft | 191 kts | 19° |
| 2026-05-07 20:39 | 38.56149 | -9.25307 | 4001 ft | 191 kts | 19° |
| 2026-05-07 20:39 | 38.57380 | -9.24661 | 3999 ft | 191 kts | 19° |
| 2026-05-07 20:40 | 38.58627 | -9.24006 | 3997 ft | 191 kts | 19° |
| 2026-05-07 20:40 | 38.59852 | -9.23359 | 3999 ft | 191 kts | 20° |
| 2026-05-07 20:40 | 38.61080 | -9.22704 | 4001 ft | 191 kts | 19° |
| 2026-05-07 20:40 | 38.62307 | -9.22049 | 4004 ft | 191 kts | 20° |
| 2026-05-07 20:41 | 38.63538 | -9.21393 | 4018 ft | 192 kts | 20° |
| 2026-05-07 20:41 | 38.64784 | -9.20722 | 3872 ft | 199 kts | 21° |
| 2026-05-07 20:41 | 38.66044 | -9.19996 | 3333 ft | 193 kts | 20° |
| 2026-05-07 20:41 | 38.67257 | -9.19357 | 2699 ft | 184 kts | 18° |
| 2026-05-07 20:42 | 38.68425 | -9.18773 | 2234 ft | 179 kts | 19° |
| 2026-05-07 20:42 | 38.69565 | -9.18158 | 1828 ft | 176 kts | 20° |
| 2026-05-07 20:42 | 38.70641 | -9.17552 | 1461 ft | 160 kts | 20° |
| 2026-05-07 20:42 | 38.71617 | -9.17048 | 1261 ft | 146 kts | 20° |
| 2026-05-07 20:43 | 38.72600 | -9.16545 | 1182 ft | 155 kts | 19° |
| 2026-05-07 20:43 | 38.73580 | -9.16016 | 945 ft | 151 kts | 19° |
| 2026-05-07 20:43 | 38.74534 | -9.15501 | 762 ft | 149 kts | 18° |
| 2026-05-07 20:43 | 38.75518 | -9.14977 | 602 ft | 150 kts | 19° |
| 2026-05-07 20:44 | 38.76484 | -9.14463 | 402 ft | 152 kts | 19° |
| 2026-05-07 20:44 | 38.77437 | -9.13966 | 359 ft | 135 kts | 21° |
| 2026-05-07 20:44 | 38.78176 | -9.13572 | 358 ft | 78 kts | 23° |
| 2026-05-07 20:44 | 38.78506 | -9.13387 | 361 ft | 28 kts | 39° |
| 2026-05-07 20:45 | 38.78518 | -9.13257 | 360 ft | 14 kts | 135° |
| 2026-05-07 20:45 | 38.78425 | -9.13223 | 357 ft | 14 kts | 180° |
| 2026-05-07 20:45 | 38.78383 | -9.13232 | 360 ft | 9 kts | 193° |
| 2026-05-07 20:45 | 38.78299 | -9.13271 | 356 ft | 15 kts | 199° |
| 2026-05-07 20:46 | 38.78180 | -9.13326 | 354 ft | 23 kts | 200° |
| 2026-05-07 20:46 | 38.78003 | -9.13398 | 352 ft | 29 kts | 181° |
| 2026-05-07 20:46 | 38.77808 | -9.13359 | 359 ft | 28 kts | 168° |
| 2026-05-07 20:46 | 38.77746 | -9.13342 | 357 ft | 1 kts | 168° |
| 2026-05-07 20:47 | 38.77732 | -9.13337 | 357 ft | 3 kts | 165° |
| 2026-05-07 20:47 | 38.77707 | -9.13312 | 361 ft | 6 kts | 120° |
| 2026-05-07 20:47 | 38.77687 | -9.13252 | 358 ft | 8 kts | 115° |
| 2026-05-07 20:47 | 38.77677 | -9.13225 | 355 ft | 0 kts | 115° |
| 2026-05-07 20:48 | 38.77675 | -9.13218 | 354 ft | 2 kts | 115° |
| 2026-05-07 20:48 | 38.77674 | -9.13216 | 353 ft | 0 kts | 115° |